createdAt,value
2022-10-21T00:02:41.591Z,4.50
2022-10-21T00:05:44.224Z,4.70
2022-10-21T00:08:46.949Z,5.30
2022-10-21T00:11:49.614Z,4.78
2022-10-21T00:14:56.433Z,4.70
2022-10-21T00:18:00.418Z,4.97
2022-10-21T00:21:07.148Z,5.30
2022-10-21T00:24:10.049Z,4.80
2022-10-21T00:27:12.622Z,4.40
2022-10-21T00:30:16.756Z,4.07
2022-10-21T00:33:19.498Z,4.67
2022-10-21T00:36:22.092Z,4.35
2022-10-21T00:39:24.850Z,4.75
2022-10-21T00:42:34.497Z,4.60
2022-10-21T00:45:38.726Z,4.83
2022-10-21T00:48:44.307Z,4.47
2022-10-21T00:51:50.660Z,4.72
2022-10-21T00:54:56.201Z,5.20
2022-10-21T00:57:59.063Z,4.80
2022-10-21T01:01:04.996Z,4.57
2022-10-21T01:04:07.739Z,4.87
2022-10-21T01:07:10.513Z,5.00
2022-10-21T01:10:13.251Z,4.93
2022-10-21T01:13:24.438Z,5.40
2022-10-21T01:16:37.830Z,5.17
2022-10-21T01:20:05.178Z,5.00
2022-10-21T01:23:31.312Z,4.95
2022-10-21T01:27:13.021Z,5.03
2022-10-21T01:30:45.034Z,5.18
2022-10-21T01:33:54.308Z,5.03
2022-10-21T01:37:02.903Z,4.33
2022-10-21T01:40:10.326Z,4.47
2022-10-21T01:43:21.813Z,4.90
2022-10-21T01:46:28.723Z,4.90
2022-10-21T01:49:37.815Z,5.07
2022-10-21T01:52:43.352Z,4.83
2022-10-21T01:55:48.174Z,4.70
2022-10-21T01:58:52.827Z,4.90
2022-10-21T02:01:57.966Z,5.13
2022-10-21T02:05:07.847Z,5.17
2022-10-21T02:08:10.598Z,5.50
2022-10-21T02:11:13.730Z,5.97
2022-10-21T02:14:21.106Z,5.88
2022-10-21T02:17:24.189Z,5.78
2022-10-21T02:20:32.483Z,5.97
2022-10-21T02:23:46.835Z,6.00
2022-10-21T02:26:49.784Z,5.40
2022-10-21T02:29:56.666Z,5.07
2022-10-21T02:33:06.919Z,5.25
2022-10-21T02:36:15.428Z,5.23
2022-10-21T02:39:22.894Z,5.00
2022-10-21T02:42:29.835Z,4.85
2022-10-21T02:45:34.220Z,5.18
2022-10-21T02:48:38.318Z,5.00
2022-10-21T02:51:43.190Z,5.70
2022-10-21T02:54:45.723Z,5.57
2022-10-21T02:57:48.429Z,4.85
2022-10-21T03:00:51.010Z,5.68
2022-10-21T03:03:53.815Z,5.18
2022-10-21T03:06:57.882Z,5.10
2022-10-21T03:10:00.461Z,5.47
2022-10-21T03:13:03.222Z,5.90
2022-10-21T03:16:06.203Z,5.63
2022-10-21T03:19:08.926Z,5.43
2022-10-21T03:22:12.983Z,5.50
2022-10-21T03:25:15.556Z,5.70
2022-10-21T03:28:18.291Z,5.70
2022-10-21T03:31:20.881Z,5.43
2022-10-21T03:34:23.582Z,5.85
2022-10-21T03:37:27.711Z,5.90
2022-10-21T03:40:30.861Z,5.50
2022-10-21T03:43:33.546Z,6.03
2022-10-21T03:46:36.121Z,5.70
2022-10-21T03:49:38.699Z,5.55
2022-10-21T03:52:42.840Z,5.07
2022-10-21T03:55:45.450Z,5.38
2022-10-21T03:58:48.133Z,6.00
2022-10-21T04:01:50.704Z,5.47
2022-10-21T04:04:53.493Z,5.53
2022-10-21T04:07:57.423Z,6.13
2022-10-21T04:11:00.138Z,6.03
2022-10-21T04:14:02.778Z,6.10
2022-10-21T04:17:07.691Z,5.88
2022-10-21T04:20:11.783Z,6.78
2022-10-21T04:23:15.773Z,6.00
2022-10-21T04:26:18.499Z,5.90
2022-10-21T04:29:21.230Z,6.18
2022-10-21T04:32:23.790Z,5.88
2022-10-21T04:35:26.523Z,5.70
2022-10-21T04:38:30.499Z,6.00
2022-10-21T04:41:33.085Z,6.68
2022-10-21T04:44:35.671Z,6.10
2022-10-21T04:47:38.514Z,6.82
2022-10-21T04:50:41.413Z,6.25
2022-10-21T04:53:45.549Z,6.00
2022-10-21T04:56:48.299Z,5.65
2022-10-21T04:59:50.862Z,5.57
2022-10-21T05:02:53.568Z,6.07
2022-10-21T05:05:56.295Z,6.30
2022-10-21T05:09:00.416Z,5.40
2022-10-21T05:12:03.383Z,5.93
2022-10-21T05:15:06.585Z,6.10
2022-10-21T05:18:09.170Z,6.47
2022-10-21T05:21:11.843Z,6.70
2022-10-21T05:24:16.127Z,6.07
2022-10-21T05:27:18.669Z,6.28
2022-10-21T05:30:21.255Z,6.23
2022-10-21T05:33:23.798Z,6.53
2022-10-21T05:36:26.514Z,6.63
2022-10-21T05:39:30.608Z,6.63
2022-10-21T05:42:33.239Z,6.10
2022-10-21T05:45:35.810Z,6.30
2022-10-21T05:48:38.462Z,6.40
2022-10-21T05:51:41.205Z,6.38
2022-10-21T05:54:45.139Z,5.72
2022-10-21T05:57:47.744Z,6.50
2022-10-21T06:00:51.118Z,6.43
2022-10-21T06:03:53.731Z,7.05
2022-10-21T06:10:06.361Z,6.88
2022-10-21T06:13:08.959Z,6.47
2022-10-21T06:16:13.783Z,6.50
2022-10-21T06:19:16.488Z,6.82
2022-10-21T06:22:19.183Z,6.75
2022-10-21T06:25:23.958Z,6.60
2022-10-21T06:28:28.140Z,6.30
2022-10-21T06:31:30.843Z,6.57
2022-10-21T06:34:33.421Z,6.93
2022-10-21T06:37:36.432Z,6.35
2022-10-21T06:40:40.664Z,6.80
2022-10-21T06:43:43.704Z,6.40
2022-10-21T06:46:46.402Z,7.22
2022-10-21T06:49:48.961Z,6.63
2022-10-21T06:52:51.597Z,7.60
2022-10-21T06:56:03.393Z,6.77
2022-10-21T06:59:05.999Z,6.80
2022-10-21T07:02:10.231Z,7.63
2022-10-21T07:05:12.784Z,7.72
2022-10-21T07:08:15.528Z,6.97
2022-10-21T07:11:20.758Z,6.37
2022-10-21T07:14:23.845Z,6.50
2022-10-21T07:17:26.762Z,7.18
2022-10-21T07:20:29.321Z,6.45
2022-10-21T07:23:32.025Z,7.03
2022-10-21T07:26:36.333Z,7.00
2022-10-21T07:29:38.951Z,5.72
2022-10-21T07:32:41.650Z,6.45
2022-10-21T07:35:44.231Z,6.38
2022-10-21T07:38:48.024Z,6.65
2022-10-21T07:41:54.086Z,6.77
2022-10-21T07:44:59.420Z,7.20
2022-10-21T07:48:02.109Z,6.80
2022-10-21T07:51:06.091Z,6.63
2022-10-21T07:54:09.578Z,7.63
2022-10-21T07:57:13.492Z,6.50
2022-10-21T08:00:16.209Z,7.68
2022-10-21T08:03:18.876Z,10.27
2022-10-21T08:06:22.194Z,7.93
2022-10-21T08:09:26.386Z,6.90
2022-10-21T08:12:30.434Z,7.33
2022-10-21T08:15:34.732Z,7.53
2022-10-21T08:18:37.433Z,8.20
2022-10-21T08:21:40.001Z,7.20
2022-10-21T08:24:42.684Z,6.85
2022-10-21T08:27:46.712Z,7.35
2022-10-21T08:30:49.530Z,6.72
2022-10-21T08:33:52.211Z,7.40
2022-10-21T08:36:54.745Z,6.57
2022-10-21T08:39:57.406Z,6.38
2022-10-21T08:43:08.807Z,7.57
2022-10-21T08:46:16.824Z,6.40
2022-10-21T08:49:27.270Z,6.35
2022-10-21T08:52:40.312Z,8.57
2022-10-21T08:55:45.758Z,7.43
2022-10-21T08:58:52.602Z,7.78
2022-10-21T09:02:02.344Z,7.35
2022-10-21T09:05:24.146Z,8.25
2022-10-21T09:08:35.856Z,7.70
2022-10-21T09:12:03.905Z,7.15
2022-10-21T09:15:18.900Z,7.60
2022-10-21T09:18:32.217Z,7.05
2022-10-21T09:21:46.240Z,7.05
2022-10-21T09:24:53.401Z,6.67
2022-10-21T09:27:57.524Z,6.03
2022-10-21T09:31:04.429Z,7.35
2022-10-21T09:34:17.407Z,6.00
2022-10-21T09:37:29.418Z,6.40
2022-10-21T09:40:34.931Z,6.90
2022-10-21T09:43:37.632Z,6.43
2022-10-21T09:46:41.568Z,6.00
2022-10-21T09:50:06.254Z,7.15
2022-10-21T09:53:16.428Z,6.72
2022-10-21T09:56:21.330Z,6.10
2022-10-21T09:59:29.056Z,6.03
2022-10-21T10:02:38.022Z,6.90
2022-10-21T10:05:44.062Z,7.03
2022-10-21T10:08:48.201Z,6.10
2022-10-21T10:11:54.584Z,7.10
2022-10-21T10:14:57.704Z,6.60
2022-10-21T10:18:04.582Z,6.40
2022-10-21T10:21:11.122Z,6.70
2022-10-21T10:24:22.580Z,6.45
2022-10-21T10:27:26.733Z,5.63
2022-10-21T10:30:38.090Z,6.40
2022-10-21T10:33:58.713Z,6.50
2022-10-21T10:37:06.008Z,5.90
2022-10-21T10:40:11.205Z,6.32
2022-10-21T10:43:16.886Z,6.33
2022-10-21T10:49:56.904Z,5.60
2022-10-21T10:53:21.453Z,6.10
2022-10-21T10:56:29.362Z,5.43
2022-10-21T10:59:36.803Z,5.97
2022-10-21T11:02:49.226Z,4.78
2022-10-21T11:05:58.951Z,6.00
2022-10-21T11:09:03.458Z,5.50
2022-10-21T11:12:14.460Z,5.95
2022-10-21T11:15:17.659Z,5.77
2022-10-21T11:18:30.128Z,6.07
2022-10-21T11:21:46.613Z,5.22
2022-10-21T11:25:05.422Z,5.13
2022-10-21T11:28:17.167Z,5.50
2022-10-21T11:31:27.156Z,5.03
2022-10-21T11:34:40.656Z,5.30
2022-10-21T11:37:56.495Z,6.05
2022-10-21T11:41:07.657Z,5.40
2022-10-21T11:44:20.919Z,5.68
2022-10-21T11:47:35.992Z,5.00
2022-10-21T11:50:45.467Z,5.43
2022-10-21T11:54:07.743Z,6.10
2022-10-21T11:57:18.087Z,6.13
2022-10-21T12:00:24.698Z,5.30
2022-10-21T12:03:44.911Z,5.87
2022-10-21T12:06:57.570Z,6.10
2022-10-21T12:10:06.394Z,6.22
2022-10-21T12:13:16.395Z,6.53
2022-10-21T12:16:24.079Z,6.38
2022-10-21T12:19:27.861Z,6.30
2022-10-21T12:22:33.619Z,5.90
2022-10-21T12:25:45.531Z,6.25
2022-10-21T12:28:57.763Z,6.40
2022-10-21T12:32:07.240Z,6.00
2022-10-21T12:35:14.493Z,6.30
2022-10-21T12:38:22.956Z,6.05
2022-10-21T12:41:34.324Z,6.40
2022-10-21T12:44:39.248Z,7.25
2022-10-21T12:47:46.187Z,7.95
2022-10-21T12:50:58.308Z,6.20
2022-10-21T12:54:08.643Z,5.57
2022-10-21T12:57:25.087Z,7.80
2022-10-21T13:00:56.448Z,5.85
2022-10-21T13:03:59.074Z,6.97
2022-10-21T13:07:02.572Z,6.23
2022-10-21T13:10:26.655Z,6.10
2022-10-21T13:13:34.166Z,6.63
2022-10-21T13:16:40.348Z,5.88
2022-10-21T13:19:43.198Z,5.70
2022-10-21T13:22:47.832Z,6.90
2022-10-21T13:26:13.561Z,5.30
2022-10-21T13:29:46.267Z,6.13
2022-10-21T13:33:01.396Z,6.60
2022-10-21T13:36:11.913Z,6.20
2022-10-21T13:39:25.864Z,5.67
2022-10-21T13:42:34.583Z,6.13
2022-10-21T13:45:44.006Z,5.63
2022-10-21T13:48:48.712Z,6.68
2022-10-21T13:51:53.834Z,5.50
2022-10-21T13:55:00.589Z,5.60
2022-10-21T13:58:03.142Z,6.47
2022-10-21T14:01:12.310Z,4.88
2022-10-21T14:04:16.840Z,5.38
2022-10-21T14:07:20.882Z,8.95
2022-10-21T14:10:23.711Z,6.17
2022-10-21T14:13:29.946Z,6.45
2022-10-21T14:16:36.804Z,5.93
2022-10-21T14:19:40.041Z,6.13
2022-10-21T14:22:43.549Z,7.13
2022-10-21T14:25:48.929Z,6.47
2022-10-21T14:28:52.137Z,6.10
2022-10-21T14:31:56.312Z,6.57
2022-10-21T14:35:03.099Z,6.40
2022-10-21T14:38:26.420Z,7.10
2022-10-21T14:41:33.580Z,6.57
2022-10-21T14:44:36.249Z,6.18
2022-10-21T14:47:40.196Z,6.82
2022-10-21T14:50:43.933Z,6.05
2022-10-21T14:53:51.589Z,5.85
2022-10-21T14:56:54.561Z,6.23
2022-10-21T14:59:58.213Z,5.85
2022-10-21T15:03:02.933Z,5.60
2022-10-21T15:06:10.886Z,6.40
2022-10-21T15:09:23.296Z,6.05
2022-10-21T15:12:26.026Z,5.40
2022-10-21T15:15:53.827Z,6.18
2022-10-21T15:18:59.284Z,5.90
2022-10-21T15:22:04.138Z,6.53
2022-10-21T15:25:16.807Z,5.68
2022-10-21T15:28:20.822Z,5.60
2022-10-21T15:31:25.031Z,5.95
2022-10-21T15:34:29.558Z,5.53
2022-10-21T15:37:32.252Z,6.18
2022-10-21T15:40:34.818Z,5.40
2022-10-21T15:43:37.583Z,6.77
2022-10-21T15:46:46.206Z,6.07
2022-10-21T15:49:51.001Z,5.75
2022-10-21T15:56:01.998Z,6.10
2022-10-21T15:59:05.238Z,5.70
2022-10-21T16:02:14.101Z,6.32
2022-10-21T16:05:21.489Z,6.43
2022-10-21T16:08:24.116Z,5.57
2022-10-21T16:11:40.638Z,6.20
2022-10-21T16:14:44.125Z,6.13
2022-10-21T16:17:48.939Z,5.63
2022-10-21T16:20:54.919Z,6.05
2022-10-21T16:23:58.552Z,5.45
2022-10-21T16:27:01.223Z,6.25
2022-10-21T16:30:14.907Z,6.23
2022-10-21T16:33:17.615Z,6.03
2022-10-21T16:36:23.931Z,6.63
2022-10-21T16:39:26.529Z,6.53
2022-10-21T16:42:29.160Z,6.32
2022-10-21T16:45:33.638Z,7.67
2022-10-21T16:48:36.233Z,6.82
2022-10-21T16:51:41.762Z,6.60
2022-10-21T16:54:48.461Z,6.85
2022-10-21T16:57:51.514Z,7.00
2022-10-21T17:00:54.309Z,6.10
2022-10-21T17:03:56.908Z,8.43
2022-10-21T17:07:01.971Z,6.97
2022-10-21T17:10:05.064Z,7.70
2022-10-21T17:13:07.925Z,7.82
2022-10-21T17:16:10.969Z,10.80
2022-10-21T17:19:14.170Z,14.68
2022-10-21T17:22:18.130Z,17.40
2022-10-21T17:25:22.789Z,14.55
2022-10-21T17:28:25.332Z,10.85
2022-10-21T17:31:29.576Z,8.80
2022-10-21T17:34:36.648Z,8.63
2022-10-21T17:37:40.969Z,8.38
2022-10-21T17:40:43.764Z,8.63
2022-10-21T17:43:46.326Z,8.52
2022-10-21T17:46:52.949Z,8.73
2022-10-21T17:49:55.511Z,8.63
2022-10-21T17:53:00.463Z,9.45
2022-10-21T17:56:06.307Z,9.30
2022-10-21T17:59:09.451Z,9.45
2022-10-21T18:02:12.125Z,8.00
2022-10-21T18:05:14.824Z,8.40
2022-10-21T18:08:18.750Z,9.65
2022-10-21T18:11:22.187Z,9.55
2022-10-21T18:14:24.743Z,8.07
2022-10-21T18:17:27.484Z,10.60
2022-10-21T18:20:30.196Z,10.45
2022-10-21T18:23:34.499Z,9.95
2022-10-21T18:26:37.737Z,8.98
2022-10-21T18:29:40.295Z,8.85
2022-10-21T18:32:43.191Z,9.10
2022-10-21T18:35:45.881Z,9.75
2022-10-21T18:38:50.195Z,10.10
2022-10-21T18:41:53.691Z,9.82
2022-10-21T18:44:56.256Z,9.27
2022-10-21T18:47:58.980Z,9.77
2022-10-21T18:51:06.490Z,11.02
2022-10-21T18:54:10.710Z,12.98
2022-10-21T18:57:13.437Z,13.45
2022-10-21T19:00:16.194Z,12.95
2022-10-21T19:03:18.870Z,10.10
2022-10-21T19:06:31.648Z,9.45
2022-10-21T19:09:38.256Z,9.07
2022-10-21T19:12:40.952Z,7.57
2022-10-21T19:15:44.160Z,8.52
2022-10-21T19:18:46.910Z,8.57
2022-10-21T19:21:49.613Z,7.82
2022-10-21T19:24:53.711Z,8.93
2022-10-21T19:27:56.425Z,8.63
2022-10-21T19:30:59.024Z,8.65
2022-10-21T19:34:01.761Z,8.27
2022-10-21T19:37:04.346Z,9.18
2022-10-21T19:40:09.162Z,9.20
2022-10-21T19:43:14.882Z,9.60
2022-10-21T19:46:22.384Z,9.60
2022-10-21T19:49:28.177Z,9.30
2022-10-21T19:52:30.725Z,9.80
2022-10-21T19:55:35.198Z,10.75
2022-10-21T19:58:39.853Z,9.65
2022-10-21T20:01:42.612Z,9.48
2022-10-21T20:04:45.487Z,8.90
2022-10-21T20:07:48.049Z,9.40
2022-10-21T20:11:01.083Z,8.77
2022-10-21T20:14:04.249Z,8.93
2022-10-21T20:17:06.948Z,9.55
2022-10-21T20:20:09.945Z,9.30
2022-10-21T20:23:12.517Z,8.65
2022-10-21T20:26:16.727Z,9.40
2022-10-21T20:29:19.671Z,9.05
2022-10-21T20:32:22.365Z,9.27
2022-10-21T20:35:25.066Z,8.47
2022-10-21T20:38:27.637Z,9.27
2022-10-21T20:41:34.563Z,9.25
2022-10-21T20:44:37.197Z,8.90
2022-10-21T20:47:40.244Z,9.18
2022-10-21T20:50:43.184Z,8.10
2022-10-21T20:56:55.336Z,9.20
2022-10-21T20:59:58.044Z,8.48
2022-10-21T21:03:00.753Z,8.82
2022-10-21T21:06:07.113Z,8.83
2022-10-21T21:12:33.967Z,8.70
2022-10-21T21:15:36.674Z,9.20
2022-10-21T21:18:40.926Z,10.10
2022-10-21T21:21:43.490Z,11.60
2022-10-21T21:24:46.213Z,10.65
2022-10-21T21:27:50.546Z,9.52
2022-10-21T21:30:53.519Z,9.95
2022-10-21T21:33:56.665Z,8.63
2022-10-21T21:36:59.897Z,7.50
2022-10-21T21:40:02.665Z,8.60
2022-10-21T21:43:06.647Z,7.78
2022-10-21T21:46:09.620Z,8.00
2022-10-21T21:49:12.193Z,7.72
2022-10-21T21:52:15.080Z,7.73
2022-10-21T21:55:17.675Z,8.48
2022-10-21T21:58:21.613Z,7.72
2022-10-21T22:01:26.951Z,7.95
2022-10-21T22:04:29.638Z,8.57
2022-10-21T22:07:33.113Z,7.53
2022-10-21T22:10:36.174Z,7.80
2022-10-21T22:13:40.971Z,8.02
2022-10-21T22:16:43.733Z,7.88
2022-10-21T22:19:48.673Z,8.18
2022-10-21T22:22:53.322Z,7.10
2022-10-21T22:25:56.499Z,9.60
2022-10-21T22:29:00.438Z,7.90
2022-10-21T22:32:03.116Z,8.27
2022-10-21T22:35:06.372Z,8.00
2022-10-21T22:38:09.062Z,8.20
2022-10-21T22:41:12.810Z,9.25
2022-10-21T22:44:16.997Z,8.70
2022-10-21T22:47:23.408Z,7.60
2022-10-21T22:50:26.006Z,8.50
2022-10-21T22:53:29.073Z,7.97
2022-10-21T22:56:32.190Z,8.85
2022-10-21T22:59:37.417Z,8.13
2022-10-21T23:02:40.536Z,7.35
2022-10-21T23:05:43.865Z,6.93
2022-10-21T23:08:46.694Z,6.90
2022-10-21T23:11:49.814Z,7.22
2022-10-21T23:14:53.732Z,8.23
2022-10-21T23:17:56.457Z,7.00
2022-10-21T23:20:59.112Z,7.43
2022-10-21T23:24:01.842Z,7.07
2022-10-21T23:27:04.849Z,7.70
2022-10-21T23:30:09.717Z,6.93
2022-10-21T23:33:12.423Z,6.43
2022-10-21T23:36:15.013Z,7.60
2022-10-21T23:39:17.812Z,7.00
2022-10-21T23:42:20.507Z,7.13
2022-10-21T23:45:24.933Z,7.43
2022-10-21T23:48:27.631Z,6.10
2022-10-21T23:51:30.280Z,5.75
2022-10-21T23:54:32.985Z,6.00
2022-10-21T23:57:35.772Z,6.00
